Long Lake, SD (57457)

11:59 PM CDT on September 21, 2014 (GMT -0500)
Eureka, South Dakota | Change Station
CLOSE
Current Station
Personal Weather Station
Location: Eureka, SD
Elevation: 1871 ft
Nearby Weather Stations

Elev 1871 ft 45.77 °N, 99.62 °W | Updated 11 seconds ago

Clear
Clear
48.2 °F
Feels Like 48 °F
N
0.0
Wind Variable Wind from SE
Gusts 1.0 mph

Today
High -- | Low -- °F
--% Chance of Precip.
Yesterday
High -- | Low -- °F
Precip. -- in
7:22 AM 7:36 PM
Waning Crescent, 4% visible
Pressure 30.25 in
Visibility 10.0 miles
Clouds Clear
Windchill 48 °F
Dew Point 44 °F
Humidity 84%
Rainfall 0.00 in
Snow Depth 0 in
UV 0 out of 12
Pollen 3.10 out of 12
Air Quality Not available.
Flu Activity Not available.
METAR KABR 220353Z AUTO 00000KT 10SM CLR 08/06 A3025

More Conditions Fewer Conditions

Pressure 30.25 in
Visibility 10.0 miles
Clouds Clear
Windchill 48 °F
Dew Point 44 °F
Humidity 84%
Rainfall 0.00 in
Snow Depth 0 in
UV 0 out of 12
Pollen 3.10 out of 12
Air Quality Not available.
Flu Activity Not available.
METAR KABR 220353Z AUTO 00000KT 10SM CLR 08/06 A3025

More Conditions Fewer Conditions

10-Day Weather Forecast

Almanac

Astronomy

Sep. 21, 2014 Rise Set
Actual Time 7:22 AM CDT 7:36 PM CDT
Civil Twilight 6:53 AM CDT 8:06 PM CDT
Nautical Twilight 6:18 AM CDT 8:41 PM CDT
Astronomical Twilight 5:41 AM CDT 9:16 PM CDT
Moon 4:52 AM CDT (9/21) 6:17 PM CDT (9/21)
Length of Visible Light 13h 13m
Length of Day
12h 13m
Tomorrow will be 3m 12s shorter.
Waning Crescent, 4% of the Moon is Illuminated
Sep 22
Waning Crescent
Sep 24
New
Oct 1
First Quarter
Oct 8
Full
Oct 15
Last Quarter

Yesterday's Extremes

State Highs State Lows

Community

WunderPhotos

Upload Photos

1,755,391 photos uploaded!

Nearby

Snow Depth

Station Depth Elevation
Blind Park 0 in 6890 ft

Earthquake Activity

City Distance Mag. Time & Date
No recent earthquake activity has been reported nearby.
Minimum magnitude displayed is 2.5.

Coastal Water Temperatures

Place Temperature
No Stations Reporting

Nearby Weather Stations